Time;durP1;ratioP1;P1;durP2;ratioP2;P2;SDS_P1;SDS_P2;PMS_P1;PMS_P2;Temp;Humidity;BMP_temperature;BMP_pressure;BME280_temperature;BME280_humidity;BME280_pressure;Samples;Min_cycle;Max_cycle;Signal;HPM_P1;HPM_P2
2021/08/28 00:01:29;;;;;;;2.15;0.80;;;;;;;;;;5083073;28;20496;-85
2021/08/28 00:03:55;;;;;;;1.13;0.70;;;;;;;;;;5083900;28;20025;-84
2021/08/28 00:06:21;;;;;;;2.97;0.90;;;;;;;;;;5063284;28;20029;-86
2021/08/28 00:08:47;;;;;;;2.25;1.08;;;;;;;;;;5078213;28;20129;-86
2021/08/28 00:11:13;;;;;;;3.80;0.98;;;;;;;;;;5078912;28;20099;-86
2021/08/28 00:13:39;;;;;;;3.10;1.15;;;;;;;;;;5079025;28;20024;-86
2021/08/28 00:16:05;;;;;;;2.75;1.10;;;;;;;;;;5079742;28;20020;-85
2021/08/28 00:18:31;;;;;;;2.58;0.95;;;;;;;;;;5079733;28;20473;-87
2021/08/28 00:20:57;;;;;;;5.97;1.10;;;;;;;;;;5079339;28;20028;-86
2021/08/28 00:23:23;;;;;;;2.60;0.98;;;;;;;;;;5078145;28;20025;-86
2021/08/28 00:25:49;;;;;;;3.40;1.10;;;;;;;;;;5078336;28;20028;-83
2021/08/28 00:28:15;;;;;;;3.15;0.90;;;;;;;;;;5079961;28;20392;-83
2021/08/28 00:30:41;;;;;;;1.75;0.90;;;;;;;;;;5079524;28;20039;-83
2021/08/28 00:33:08;;;;;;;2.63;1.05;;;;;;;;;;5080871;28;20041;-83
2021/08/28 00:35:34;;;;;;;5.47;1.13;;;;;;;;;;5080457;28;20054;-83
2021/08/28 00:38:00;;;;;;;2.10;1.20;;;;;;;;;;5078873;28;20032;-83
2021/08/28 00:40:26;;;;;;;2.58;1.30;;;;;;;;;;5079621;28;20033;-83
2021/08/28 00:42:52;;;;;;;5.05;1.40;;;;;;;;;;5081441;28;20040;-83
2021/08/28 00:45:20;;;;;;;2.17;1.30;;;;;;;;;;5078272;28;20412;-83
2021/08/28 00:47:59;;;;;;;5.45;1.15;;;;;;;;;;5079297;28;20047;-84
2021/08/28 00:50:25;;;;;;;4.28;1.30;;;;;;;;;;5078533;28;20432;-84
2021/08/28 00:52:52;;;;;;;6.75;1.27;;;;;;;;;;5080785;28;20044;-85
2021/08/28 00:55:18;;;;;;;3.28;1.13;;;;;;;;;;5080586;28;20051;-85
2021/08/28 00:57:44;;;;;;;6.70;1.77;;;;;;;;;;5080810;28;20029;-85
2021/08/28 01:00:10;;;;;;;2.75;1.20;;;;;;;;;;5080580;28;20040;-85
2021/08/28 01:02:38;;;;;;;5.57;1.40;;;;;;;;;;5082534;28;20024;-85
2021/08/28 01:05:07;;;;;;;3.63;1.27;;;;;;;;;;5082551;28;20021;-85
2021/08/28 01:07:38;;;;;;;3.08;1.50;;;;;;;;;;5080569;28;20056;-84
2021/08/28 01:10:06;;;;;;;5.55;1.52;;;;;;;;;;5079250;28;20320;-85
2021/08/28 01:12:41;;;;;;;2.25;1.33;;;;;;;;;;5061760;28;20056;-85
2021/08/28 01:15:09;;;;;;;4.07;1.58;;;;;;;;;;5080535;28;20028;-86
2021/08/28 01:17:36;;;;;;;3.22;1.13;;;;;;;;;;5080304;28;20043;-85
2021/08/28 01:20:02;;;;;;;3.20;1.35;;;;;;;;;;5079327;28;20136;-84
2021/08/28 01:22:29;;;;;;;4.32;1.15;;;;;;;;;;5080276;28;20031;-85
2021/08/28 01:24:55;;;;;;;2.20;1.40;;;;;;;;;;5079309;28;20363;-85
2021/08/28 01:27:27;;;;;;;2.75;1.20;;;;;;;;;;5080110;28;20048;-85
2021/08/28 01:29:53;;;;;;;5.85;1.38;;;;;;;;;;5079881;28;20099;-86
2021/08/28 01:32:20;;;;;;;3.00;1.20;;;;;;;;;;5079490;28;20071;-85
2021/08/28 01:34:48;;;;;;;2.92;1.30;;;;;;;;;;5079820;28;20032;-85
2021/08/28 01:37:14;;;;;;;5.55;1.52;;;;;;;;;;5080155;28;20499;-86
2021/08/28 01:39:41;;;;;;;7.50;1.45;;;;;;;;;;5079678;28;20083;-85
2021/08/28 01:42:08;;;;;;;5.25;1.40;;;;;;;;;;5062320;28;20032;-85
2021/08/28 01:44:34;;;;;;;5.47;1.30;;;;;;;;;;5080716;28;20036;-86
2021/08/28 01:47:00;;;;;;;5.72;1.90;;;;;;;;;;5087663;28;20036;-85
2021/08/28 01:49:27;;;;;;;1.55;1.30;;;;;;;;;;5087974;28;20025;-85
2021/08/28 01:51:53;;;;;;;1.85;1.33;;;;;;;;;;5083825;28;20032;-84
2021/08/28 01:54:19;;;;;;;2.25;1.60;;;;;;;;;;5079953;28;20036;-85
2021/08/28 01:56:45;;;;;;;3.55;1.80;;;;;;;;;;5080105;28;20029;-85
2021/08/28 01:59:11;;;;;;;2.65;1.50;;;;;;;;;;5079841;28;20052;-85
2021/08/28 02:01:37;;;;;;;3.83;1.77;;;;;;;;;;5079514;28;20044;-85
2021/08/28 02:04:03;;;;;;;3.05;1.52;;;;;;;;;;5078995;28;20050;-86
2021/08/28 02:06:32;;;;;;;2.65;1.40;;;;;;;;;;5080828;28;20063;-86
2021/08/28 02:09:01;;;;;;;2.30;1.40;;;;;;;;;;5086143;28;20017;-85
2021/08/28 02:11:32;;;;;;;3.10;1.40;;;;;;;;;;5084044;28;20029;-86
2021/08/28 02:14:02;;;;;;;3.70;1.73;;;;;;;;;;5088671;28;20035;-84
2021/08/28 02:16:31;;;;;;;6.00;1.65;;;;;;;;;;5089986;28;20039;-85
2021/08/28 02:19:07;;;;;;;2.72;1.30;;;;;;;;;;5083810;28;20035;-86
2021/08/28 02:21:34;;;;;;;5.55;1.50;;;;;;;;;;5058189;28;20032;-84
2021/08/28 02:24:10;;;;;;;2.72;1.70;;;;;;;;;;5075927;28;20036;-86
2021/08/28 02:26:47;;;;;;;4.60;1.85;;;;;;;;;;5078849;28;20052;-85
2021/08/28 02:29:17;;;;;;;3.20;2.00;;;;;;;;;;5077749;28;20081;-84
2021/08/28 02:31:45;;;;;;;2.53;1.73;;;;;;;;;;5078979;28;20028;-85
2021/08/28 02:34:12;;;;;;;5.13;1.83;;;;;;;;;;5077755;28;20068;-85
2021/08/28 02:36:39;;;;;;;5.85;1.98;;;;;;;;;;5078581;28;20025;-86
2021/08/28 02:39:07;;;;;;;3.35;1.65;;;;;;;;;;5079937;28;20024;-85
2021/08/28 02:41:33;;;;;;;5.07;1.73;;;;;;;;;;5083079;28;20024;-85
2021/08/28 02:44:00;;;;;;;4.57;2.00;;;;;;;;;;5083581;28;20029;-85
2021/08/28 02:46:27;;;;;;;2.60;1.85;;;;;;;;;;5089711;28;20042;-85
2021/08/28 02:48:54;;;;;;;3.97;1.80;;;;;;;;;;5097408;28;20036;-85
2021/08/28 02:51:21;;;;;;;4.90;2.10;;;;;;;;;;5091353;28;20114;-84
2021/08/28 02:53:47;;;;;;;5.20;2.47;;;;;;;;;;5087587;28;20032;-83
2021/08/28 02:56:14;;;;;;;7.40;2.45;;;;;;;;;;5087682;28;20032;-84
2021/08/28 02:58:40;;;;;;;4.38;1.90;;;;;;;;;;5087905;28;20058;-84
2021/08/28 03:01:07;;;;;;;3.22;2.20;;;;;;;;;;5087400;28;20041;-84
2021/08/28 03:03:34;;;;;;;8.75;2.40;;;;;;;;;;5086832;28;20504;-85
2021/08/28 03:06:00;;;;;;;4.78;2.47;;;;;;;;;;5088632;28;20103;-85
2021/08/28 03:08:27;;;;;;;3.83;1.98;;;;;;;;;;5088997;28;20528;-84
2021/08/28 03:10:54;;;;;;;4.85;2.38;;;;;;;;;;5086994;28;20028;-84
2021/08/28 03:13:20;;;;;;;3.60;2.00;;;;;;;;;;5088762;28;20081;-84
2021/08/28 03:15:47;;;;;;;3.47;1.90;;;;;;;;;;5087962;28;20048;-83
2021/08/28 03:18:14;;;;;;;4.85;2.30;;;;;;;;;;5089760;28;20029;-84
2021/08/28 03:20:41;;;;;;;4.68;2.28;;;;;;;;;;5088895;28;20040;-84
2021/08/28 03:23:08;;;;;;;4.15;2.20;;;;;;;;;;5087999;28;20040;-85
2021/08/28 03:25:34;;;;;;;3.78;2.22;;;;;;;;;;5088382;28;20060;-85
2021/08/28 03:28:01;;;;;;;3.97;2.30;;;;;;;;;;5088032;28;20085;-85
2021/08/28 03:30:28;;;;;;;4.22;2.47;;;;;;;;;;5091277;28;20024;-85
2021/08/28 03:32:54;;;;;;;6.53;2.90;;;;;;;;;;5098025;28;20029;-84
2021/08/28 03:35:20;;;;;;;6.00;2.30;;;;;;;;;;5097797;28;20103;-84
2021/08/28 03:37:47;;;;;;;6.70;2.30;;;;;;;;;;5097202;28;20043;-84
2021/08/28 03:40:13;;;;;;;3.17;2.13;;;;;;;;;;5090755;28;20063;-84
2021/08/28 03:42:40;;;;;;;4.43;2.25;;;;;;;;;;5086885;28;20032;-83
2021/08/28 03:45:07;;;;;;;6.88;2.30;;;;;;;;;;5085869;28;20033;-84
2021/08/28 03:47:35;;;;;;;3.90;2.00;;;;;;;;;;5087860;28;20021;-84
2021/08/28 03:50:01;;;;;;;4.07;1.80;;;;;;;;;;5084526;28;20033;-85
2021/08/28 03:52:27;;;;;;;3.72;2.40;;;;;;;;;;5086906;28;20086;-85
2021/08/28 03:54:53;;;;;;;3.50;2.35;;;;;;;;;;5086380;28;20409;-85
2021/08/28 03:57:19;;;;;;;4.18;2.40;;;;;;;;;;5086776;28;20036;-85
2021/08/28 03:59:45;;;;;;;4.10;2.17;;;;;;;;;;5086369;28;20043;-84
2021/08/28 04:02:11;;;;;;;3.40;2.17;;;;;;;;;;5085850;28;20024;-85
2021/08/28 04:04:37;;;;;;;5.15;2.33;;;;;;;;;;5088066;28;20035;-85
2021/08/28 04:07:03;;;;;;;4.22;2.10;;;;;;;;;;5087414;28;20051;-83
2021/08/28 04:09:29;;;;;;;2.83;2.40;;;;;;;;;;5087090;28;20048;-84
2021/08/28 04:11:55;;;;;;;3.65;2.30;;;;;;;;;;5086470;28;20024;-84
2021/08/28 04:14:21;;;;;;;3.75;2.80;;;;;;;;;;5087811;28;20056;-84
2021/08/28 04:16:47;;;;;;;4.05;2.40;;;;;;;;;;5087617;28;20097;-83
2021/08/28 04:19:13;;;;;;;3.97;2.75;;;;;;;;;;5087103;28;20095;-83
2021/08/28 04:21:39;;;;;;;4.15;2.75;;;;;;;;;;5085679;28;20031;-84
2021/08/28 04:24:05;;;;;;;3.60;2.70;;;;;;;;;;5085459;28;20048;-83
2021/08/28 04:26:31;;;;;;;5.60;3.30;;;;;;;;;;5086079;28;20031;-84
2021/08/28 04:28:57;;;;;;;5.03;3.05;;;;;;;;;;5085615;28;20020;-84
2021/08/28 04:31:24;;;;;;;7.80;3.05;;;;;;;;;;5085431;28;20032;-85
2021/08/28 04:33:50;;;;;;;4.00;2.70;;;;;;;;;;5084227;28;20066;-83
2021/08/28 04:36:16;;;;;;;7.25;2.63;;;;;;;;;;5084939;28;20210;-84
2021/08/28 04:38:42;;;;;;;5.38;3.10;;;;;;;;;;5084738;28;20027;-83
2021/08/28 04:41:08;;;;;;;11.02;3.53;;;;;;;;;;5085076;28;20025;-84
2021/08/28 04:43:34;;;;;;;5.05;3.00;;;;;;;;;;5085327;28;20435;-83
2021/08/28 04:46:00;;;;;;;4.57;3.05;;;;;;;;;;5085169;28;20021;-84
2021/08/28 04:48:27;;;;;;;8.35;2.83;;;;;;;;;;5086005;28;20074;-83
2021/08/28 04:50:53;;;;;;;5.95;2.88;;;;;;;;;;5086022;28;20021;-84
2021/08/28 04:53:19;;;;;;;5.53;3.28;;;;;;;;;;5084993;28;20033;-84
2021/08/28 04:55:45;;;;;;;4.50;2.97;;;;;;;;;;5085993;28;20374;-84
2021/08/28 04:58:12;;;;;;;4.43;3.35;;;;;;;;;;5085230;28;20111;-84
2021/08/28 05:00:38;;;;;;;5.07;3.15;;;;;;;;;;5084970;28;20154;-84
2021/08/28 05:03:04;;;;;;;5.95;3.28;;;;;;;;;;5087030;28;20076;-84
2021/08/28 05:05:30;;;;;;;5.03;3.17;;;;;;;;;;5086809;28;20043;-83
2021/08/28 05:07:56;;;;;;;7.43;3.42;;;;;;;;;;5086530;28;20024;-85
2021/08/28 05:10:23;;;;;;;3.97;2.92;;;;;;;;;;5084829;28;20035;-84
2021/08/28 05:12:49;;;;;;;4.47;3.55;;;;;;;;;;5086018;28;20028;-84
2021/08/28 05:15:15;;;;;;;7.15;3.72;;;;;;;;;;5086548;28;20031;-84
2021/08/28 05:17:41;;;;;;;6.28;3.35;;;;;;;;;;5087335;28;20032;-85
2021/08/28 05:20:07;;;;;;;4.43;3.42;;;;;;;;;;5084644;28;20116;-84
2021/08/28 05:22:34;;;;;;;5.95;3.97;;;;;;;;;;5087391;28;20096;-84
2021/08/28 05:25:00;;;;;;;8.00;4.10;;;;;;;;;;5091636;28;20024;-83
2021/08/28 05:27:25;;;;;;;6.68;3.70;;;;;;;;;;5093046;28;20706;-83
2021/08/28 05:29:52;;;;;;;6.20;3.85;;;;;;;;;;5094816;28;20047;-83
2021/08/28 05:32:18;;;;;;;5.57;3.97;;;;;;;;;;5090883;28;20020;-84
2021/08/28 05:34:44;;;;;;;8.18;4.75;;;;;;;;;;5086168;28;20086;-84
2021/08/28 05:37:10;;;;;;;6.22;4.20;;;;;;;;;;5089270;28;20029;-84
2021/08/28 05:39:36;;;;;;;5.15;3.85;;;;;;;;;;5089059;28;20431;-83
2021/08/28 05:42:02;;;;;;;7.75;4.60;;;;;;;;;;5086867;28;20021;-83
2021/08/28 05:44:28;;;;;;;7.90;4.13;;;;;;;;;;5084822;28;20025;-83
2021/08/28 05:46:54;;;;;;;6.43;3.80;;;;;;;;;;5086514;28;20028;-84
2021/08/28 05:49:20;;;;;;;6.13;3.97;;;;;;;;;;5085330;28;20037;-83
2021/08/28 05:51:46;;;;;;;7.13;3.72;;;;;;;;;;5085917;28;20716;-82
2021/08/28 05:54:12;;;;;;;10.40;4.35;;;;;;;;;;5088768;28;20036;-82
2021/08/28 05:56:38;;;;;;;7.65;4.40;;;;;;;;;;5082290;28;20025;-83
2021/08/28 05:59:05;;;;;;;7.10;4.65;;;;;;;;;;5084444;28;20032;-83
2021/08/28 06:01:31;;;;;;;5.97;4.55;;;;;;;;;;5090150;28;20028;-83
2021/08/28 06:03:57;;;;;;;5.10;3.60;;;;;;;;;;5089622;28;20067;-83
2021/08/28 06:06:23;;;;;;;8.40;5.68;;;;;;;;;;5091328;28;20020;-83
2021/08/28 06:08:48;;;;;;;6.03;5.30;;;;;;;;;;5093733;28;20093;-83
2021/08/28 06:11:14;;;;;;;9.65;6.10;;;;;;;;;;5080886;28;20112;-84
2021/08/28 06:13:40;;;;;;;10.35;6.03;;;;;;;;;;5081734;28;20042;-84
2021/08/28 06:16:06;;;;;;;10.50;6.45;;;;;;;;;;5083742;28;20048;-84
2021/08/28 06:18:32;;;;;;;8.82;7.18;;;;;;;;;;5066614;28;20497;-81
2021/08/28 06:21:01;;;;;;;12.05;7.57;;;;;;;;;;5079756;28;20033;-79
2021/08/28 06:23:27;;;;;;;12.90;8.27;;;;;;;;;;5080432;28;20016;-85
2021/08/28 06:25:53;;;;;;;12.50;8.65;;;;;;;;;;5080196;28;20029;-81
2021/08/28 06:28:19;;;;;;;11.88;8.43;;;;;;;;;;5085677;28;20463;-79
2021/08/28 06:30:45;;;;;;;15.43;8.50;;;;;;;;;;5087512;28;20041;-80
2021/08/28 06:33:11;;;;;;;13.82;9.80;;;;;;;;;;5077841;28;20036;-81
2021/08/28 06:35:37;;;;;;;13.48;9.30;;;;;;;;;;5076332;28;20028;-79
2021/08/28 06:38:03;;;;;;;11.88;9.05;;;;;;;;;;5077350;28;20138;-78
2021/08/28 06:40:29;;;;;;;11.70;8.82;;;;;;;;;;5079521;28;20032;-80
2021/08/28 06:42:55;;;;;;;11.98;9.30;;;;;;;;;;5076332;28;20029;-78
2021/08/28 06:45:21;;;;;;;12.38;8.57;;;;;;;;;;5078892;28;20024;-81
2021/08/28 06:47:47;;;;;;;11.18;8.88;;;;;;;;;;5080190;28;20072;-79
2021/08/28 06:50:13;;;;;;;10.93;8.30;;;;;;;;;;5077525;28;20121;-79
2021/08/28 06:52:40;;;;;;;11.80;8.82;;;;;;;;;;5080239;28;20039;-81
2021/08/28 06:55:07;;;;;;;13.57;9.60;;;;;;;;;;5085529;28;20056;-81
2021/08/28 06:57:33;;;;;;;13.48;8.95;;;;;;;;;;5085146;28;20085;-81
2021/08/28 06:59:59;;;;;;;13.07;9.23;;;;;;;;;;5084435;28;20031;-81
2021/08/28 07:02:25;;;;;;;11.65;9.50;;;;;;;;;;5068317;28;20024;-81
2021/08/28 07:04:51;;;;;;;13.07;8.07;;;;;;;;;;5085156;28;20044;-81
2021/08/28 07:07:17;;;;;;;10.00;8.65;;;;;;;;;;5086227;28;20033;-81
2021/08/28 07:09:43;;;;;;;13.82;7.55;;;;;;;;;;5084179;28;20024;-82
2021/08/28 07:12:09;;;;;;;9.15;7.18;;;;;;;;;;5082708;28;20052;-83
2021/08/28 07:14:35;;;;;;;11.85;8.20;;;;;;;;;;5083795;28;20027;-81
2021/08/28 07:17:01;;;;;;;10.43;8.05;;;;;;;;;;5082627;28;20032;-81
2021/08/28 07:19:27;;;;;;;11.20;8.32;;;;;;;;;;5083529;28;20035;-82
2021/08/28 07:21:53;;;;;;;9.77;8.45;;;;;;;;;;5085718;28;20031;-81
2021/08/28 07:24:19;;;;;;;9.68;7.80;;;;;;;;;;5086448;28;20056;-82
2021/08/28 07:26:45;;;;;;;9.15;7.28;;;;;;;;;;5086889;28;20031;-82
2021/08/28 07:29:11;;;;;;;8.00;7.10;;;;;;;;;;5086870;28;20090;-82
2021/08/28 07:31:37;;;;;;;10.88;7.70;;;;;;;;;;5080233;28;20272;-78
2021/08/28 07:34:03;;;;;;;10.35;6.85;;;;;;;;;;5078913;28;20046;-78
2021/08/28 07:36:29;;;;;;;8.98;7.25;;;;;;;;;;5074245;28;20500;-77
2021/08/28 07:38:55;;;;;;;11.68;6.75;;;;;;;;;;5073070;28;20731;-77
2021/08/28 07:41:21;;;;;;;12.02;7.78;;;;;;;;;;5074321;28;20493;-77
2021/08/28 07:43:47;;;;;;;8.85;6.45;;;;;;;;;;5074251;28;20042;-78
2021/08/28 07:46:13;;;;;;;8.40;6.32;;;;;;;;;;5074708;28;20100;-78
2021/08/28 07:48:39;;;;;;;8.75;5.90;;;;;;;;;;5074018;28;20056;-78
2021/08/28 07:51:05;;;;;;;8.52;5.60;;;;;;;;;;5073588;28;20056;-77
2021/08/28 07:53:31;;;;;;;9.40;6.22;;;;;;;;;;5073448;28;20508;-78
2021/08/28 07:55:57;;;;;;;7.05;4.82;;;;;;;;;;5073527;28;20033;-78
2021/08/28 07:58:23;;;;;;;6.28;4.95;;;;;;;;;;5073696;28;20534;-78
2021/08/28 08:00:49;;;;;;;7.45;5.20;;;;;;;;;;5075473;28;20032;-78
2021/08/28 08:03:15;;;;;;;7.70;4.35;;;;;;;;;;5075549;28;20033;-79
2021/08/28 08:05:42;;;;;;;9.15;5.07;;;;;;;;;;5075391;28;20162;-79
2021/08/28 08:08:08;;;;;;;9.18;5.95;;;;;;;;;;5075317;28;20116;-79
2021/08/28 08:10:34;;;;;;;7.50;4.40;;;;;;;;;;5075428;28;20063;-78
2021/08/28 08:13:00;;;;;;;7.53;4.40;;;;;;;;;;5074901;28;20031;-78
2021/08/28 08:15:27;;;;;;;6.32;3.97;;;;;;;;;;5074999;28;20029;-78
2021/08/28 08:17:54;;;;;;;5.53;3.63;;;;;;;;;;5073556;28;20063;-78
2021/08/28 08:20:20;;;;;;;6.70;4.13;;;;;;;;;;5057539;28;20072;-78
2021/08/28 08:22:46;;;;;;;5.50;4.10;;;;;;;;;;5074390;28;20028;-78
2021/08/28 08:25:12;;;;;;;5.25;4.22;;;;;;;;;;5072825;28;20020;-78
2021/08/28 08:27:38;;;;;;;6.13;3.88;;;;;;;;;;5072259;28;20458;-77
2021/08/28 08:30:05;;;;;;;7.75;3.50;;;;;;;;;;5072038;28;20508;-77
2021/08/28 08:32:31;;;;;;;5.03;3.30;;;;;;;;;;5072795;28;20031;-77
2021/08/28 08:34:57;;;;;;;6.60;3.53;;;;;;;;;;5072463;28;20501;-77
2021/08/28 08:37:23;;;;;;;5.25;2.92;;;;;;;;;;5071817;28;20396;-77
2021/08/28 08:39:49;;;;;;;5.80;3.45;;;;;;;;;;5073838;28;20031;-77
2021/08/28 08:42:17;;;;;;;3.63;2.35;;;;;;;;;;5075091;28;20469;-78
2021/08/28 08:44:45;;;;;;;6.10;3.25;;;;;;;;;;5073107;28;20020;-78
2021/08/28 08:47:11;;;;;;;6.03;2.83;;;;;;;;;;5072832;28;20024;-78
2021/08/28 08:49:38;;;;;;;3.35;2.17;;;;;;;;;;5071357;28;20020;-78
2021/08/28 08:52:06;;;;;;;4.18;2.50;;;;;;;;;;5072578;28;20553;-78
2021/08/28 08:54:32;;;;;;;2.90;1.83;;;;;;;;;;5072670;28;20029;-78
2021/08/28 08:56:58;;;;;;;4.13;1.85;;;;;;;;;;5072307;28;20078;-78
2021/08/28 08:59:24;;;;;;;4.85;2.30;;;;;;;;;;5071979;28;20031;-78
2021/08/28 09:01:50;;;;;;;3.65;1.98;;;;;;;;;;5072118;28;20075;-78
2021/08/28 09:04:16;;;;;;;3.08;2.10;;;;;;;;;;5072168;28;20032;-78
2021/08/28 09:06:46;;;;;;;3.33;2.25;;;;;;;;;;5072274;28;20056;-78
2021/08/28 09:09:15;;;;;;;5.65;2.50;;;;;;;;;;5071745;28;20032;-78
2021/08/28 09:11:57;;;;;;;3.22;2.10;;;;;;;;;;5072292;28;20067;-78
2021/08/28 09:14:23;;;;;;;3.92;2.13;;;;;;;;;;5072425;28;20522;-78
2021/08/28 09:16:50;;;;;;;4.05;2.50;;;;;;;;;;5072257;28;20538;-78
2021/08/28 09:19:16;;;;;;;5.57;2.10;;;;;;;;;;5070627;28;20493;-78
2021/08/28 09:21:42;;;;;;;2.60;1.80;;;;;;;;;;5071588;28;20338;-78
2021/08/28 09:24:10;;;;;;;4.25;1.75;;;;;;;;;;5072061;28;20036;-78
2021/08/28 09:26:41;;;;;;;2.13;1.40;;;;;;;;;;5074350;28;20024;-78
2021/08/28 09:29:08;;;;;;;2.92;1.60;;;;;;;;;;5076254;28;20025;-78
2021/08/28 09:31:38;;;;;;;3.10;1.70;;;;;;;;;;5074386;28;20084;-78
2021/08/28 09:34:13;;;;;;;4.10;1.58;;;;;;;;;;5072796;28;20024;-77
2021/08/28 09:36:39;;;;;;;4.45;1.33;;;;;;;;;;5072905;28;20024;-77
2021/08/28 09:39:05;;;;;;;3.97;1.90;;;;;;;;;;5069016;28;20215;-77
2021/08/28 09:41:32;;;;;;;4.90;1.58;;;;;;;;;;5071450;28;20124;-78
2021/08/28 09:44:08;;;;;;;2.70;1.40;;;;;;;;;;5071827;28;20021;-77
2021/08/28 09:46:34;;;;;;;2.47;1.50;;;;;;;;;;5072485;28;20031;-77
2021/08/28 09:49:00;;;;;;;4.30;1.67;;;;;;;;;;5075201;28;20033;-77
2021/08/28 09:51:26;;;;;;;3.67;1.95;;;;;;;;;;5077790;28;20029;-77
2021/08/28 09:53:59;;;;;;;6.18;2.20;;;;;;;;;;5077469;28;20102;-77
2021/08/28 09:56:29;;;;;;;5.57;2.13;;;;;;;;;;5074764;28;20055;-77
2021/08/28 09:58:55;;;;;;;4.72;2.05;;;;;;;;;;5075881;28;20033;-77
2021/08/28 10:01:22;;;;;;;2.75;2.08;;;;;;;;;;5090530;28;20032;-83
2021/08/28 10:03:59;;;;;;;2.78;2.03;;;;;;;;;;5093592;28;20052;-82
2021/08/28 10:06:25;;;;;;;3.65;2.08;;;;;;;;;;5089528;28;20027;-82
2021/08/28 10:08:51;;;;;;;4.82;1.90;;;;;;;;;;5089486;28;20033;-83
2021/08/28 10:11:18;;;;;;;2.50;1.77;;;;;;;;;;5089064;28;20028;-84
2021/08/28 10:13:45;;;;;;;3.55;2.33;;;;;;;;;;5085939;28;20078;-83
2021/08/28 10:16:11;;;;;;;1.77;1.45;;;;;;;;;;5089315;28;20120;-83
2021/08/28 10:18:38;;;;;;;4.30;2.05;;;;;;;;;;5088814;28;20031;-84
2021/08/28 10:21:05;;;;;;;3.42;1.83;;;;;;;;;;5087255;28;20034;-84
2021/08/28 10:23:34;;;;;;;2.53;1.45;;;;;;;;;;5083153;28;20029;-81
2021/08/28 10:26:00;;;;;;;3.05;1.40;;;;;;;;;;5084075;28;20074;-84
2021/08/28 10:28:28;;;;;;;2.92;1.40;;;;;;;;;;5083784;28;20031;-84
2021/08/28 10:30:54;;;;;;;1.65;1.50;;;;;;;;;;5080708;28;20032;-84
2021/08/28 10:33:20;;;;;;;3.35;1.52;;;;;;;;;;5083796;28;20029;-84
2021/08/28 10:35:46;;;;;;;4.80;1.50;;;;;;;;;;5082965;28;20059;-84
2021/08/28 10:38:13;;;;;;;2.40;1.23;;;;;;;;;;5088927;28;20043;-84
2021/08/28 10:40:41;;;;;;;6.53;2.75;;;;;;;;;;5085515;28;20032;-84
2021/08/28 10:43:08;;;;;;;3.42;1.38;;;;;;;;;;5083764;28;20024;-85
2021/08/28 10:45:35;;;;;;;1.25;1.05;;;;;;;;;;5084528;28;20032;-85
2021/08/28 10:48:02;;;;;;;2.22;1.27;;;;;;;;;;5084211;28;20032;-85
2021/08/28 10:50:32;;;;;;;2.78;1.17;;;;;;;;;;5084924;28;20082;-85
2021/08/28 10:53:00;;;;;;;2.70;1.00;;;;;;;;;;5085713;28;20037;-84
2021/08/28 10:55:37;;;;;;;2.00;1.05;;;;;;;;;;5090316;28;20025;-84
2021/08/28 10:58:13;;;;;;;2.35;1.00;;;;;;;;;;5089848;28;20033;-85
2021/08/28 11:00:41;;;;;;;3.15;1.20;;;;;;;;;;5087131;28;20104;-84
2021/08/28 11:03:22;;;;;;;6.70;3.55;;;;;;;;;;5082860;28;20039;-84
2021/08/28 11:06:07;;;;;;;1.52;0.90;;;;;;;;;;5084508;28;20031;-85
2021/08/28 11:08:54;;;;;;;2.72;0.90;;;;;;;;;;5082024;28;20036;-86
2021/08/28 11:11:21;;;;;;;1.77;1.00;;;;;;;;;;5075270;28;20034;-85
2021/08/28 11:14:00;;;;;;;2.35;1.10;;;;;;;;;;5076572;28;20088;-85
2021/08/28 11:16:44;;;;;;;2.80;1.10;;;;;;;;;;5077177;28;20362;-85
2021/08/28 11:19:23;;;;;;;2.83;1.50;;;;;;;;;;5075200;28;20086;-85
2021/08/28 11:21:50;;;;;;;2.75;1.65;;;;;;;;;;5065438;28;20044;-85
2021/08/28 11:24:20;;;;;;;3.53;1.73;;;;;;;;;;5067674;28;20052;-85
2021/08/28 11:26:50;;;;;;;3.50;1.85;;;;;;;;;;5062563;28;20070;-85
2021/08/28 11:29:25;;;;;;;2.75;1.67;;;;;;;;;;5068877;28;20103;-86
2021/08/28 11:32:12;;;;;;;1.50;1.30;;;;;;;;;;5069484;28;20025;-86
2021/08/28 11:34:39;;;;;;;1.52;0.90;;;;;;;;;;5069465;28;20019;-86
2021/08/28 11:37:31;;;;;;;2.47;0.82;;;;;;;;;;5072545;28;20028;-87
2021/08/28 11:39:57;;;;;;;2.40;0.90;;;;;;;;;;5071841;28;20033;-87
2021/08/28 11:42:24;;;;;;;1.50;1.00;;;;;;;;;;5067057;28;20025;-87
2021/08/28 11:44:51;;;;;;;1.50;0.90;;;;;;;;;;5070279;28;20028;-87
2021/08/28 11:47:17;;;;;;;1.75;1.20;;;;;;;;;;5056248;28;20055;-87
2021/08/28 11:49:44;;;;;;;2.60;1.00;;;;;;;;;;5070072;28;20056;-87
2021/08/28 11:52:10;;;;;;;1.83;1.20;;;;;;;;;;5075356;28;20035;-87
2021/08/28 11:54:36;;;;;;;3.85;1.05;;;;;;;;;;5073247;28;20024;-87
2021/08/28 11:57:02;;;;;;;1.42;0.90;;;;;;;;;;5058114;28;20037;-87
2021/08/28 11:59:39;;;;;;;1.50;0.70;;;;;;;;;;5078113;28;20032;-87
2021/08/28 12:02:05;;;;;;;3.75;1.02;;;;;;;;;;5067794;28;20501;-87
2021/08/28 12:04:38;;;;;;;3.15;1.52;;;;;;;;;;5054309;28;20075;-86
2021/08/28 12:07:05;;;;;;;3.45;1.70;;;;;;;;;;5064296;28;20024;-87
2021/08/28 12:09:32;;;;;;;3.67;2.35;;;;;;;;;;5073930;28;20029;-86
2021/08/28 12:11:58;;;;;;;3.75;2.10;;;;;;;;;;5069001;28;20027;-86
2021/08/28 12:14:28;;;;;;;3.22;2.10;;;;;;;;;;5065693;28;20090;-85
2021/08/28 12:16:54;;;;;;;4.18;2.72;;;;;;;;;;5060385;28;20059;-85
2021/08/28 12:19:22;;;;;;;3.75;2.30;;;;;;;;;;5059520;28;20033;-85
2021/08/28 12:21:49;;;;;;;3.90;2.15;;;;;;;;;;5059941;28;20029;-86
2021/08/28 12:24:20;;;;;;;4.40;3.63;;;;;;;;;;5071877;28;20051;-86
2021/08/28 12:26:53;;;;;;;3.47;2.28;;;;;;;;;;5074448;28;20016;-86
2021/08/28 12:29:23;;;;;;;6.55;2.45;;;;;;;;;;5071367;28;20100;-87
2021/08/28 12:31:55;;;;;;;3.03;2.13;;;;;;;;;;5072386;28;20477;-86
2021/08/28 12:34:21;;;;;;;3.10;2.28;;;;;;;;;;5073220;28;20103;-87
2021/08/28 12:36:48;;;;;;;2.90;2.13;;;;;;;;;;5073327;28;20397;-87
2021/08/28 12:39:15;;;;;;;4.70;2.20;;;;;;;;;;5072767;28;20062;-87
2021/08/28 12:41:41;;;;;;;5.40;2.20;;;;;;;;;;5073113;28;20039;-87
2021/08/28 12:44:08;;;;;;;3.53;2.42;;;;;;;;;;5075449;28;20020;-86
2021/08/28 12:46:34;;;;;;;3.78;2.30;;;;;;;;;;5076008;28;20108;-86
2021/08/28 12:49:14;;;;;;;4.43;3.17;;;;;;;;;;5074619;28;20013;-85
2021/08/28 12:51:57;;;;;;;2.67;2.08;;;;;;;;;;5078651;28;20508;-86
2021/08/28 12:54:25;;;;;;;3.53;2.30;;;;;;;;;;5088767;28;20057;-86
2021/08/28 12:57:00;;;;;;;2.92;2.05;;;;;;;;;;5085702;28;20040;-85
2021/08/28 12:59:26;;;;;;;4.00;2.00;;;;;;;;;;5082280;28;20025;-86
2021/08/28 13:01:53;;;;;;;2.92;2.03;;;;;;;;;;5078572;28;20031;-86
2021/08/28 13:04:20;;;;;;;2.78;1.90;;;;;;;;;;5075555;28;20029;-85
2021/08/28 13:07:05;;;;;;;2.97;1.83;;;;;;;;;;5072176;28;20095;-85
2021/08/28 13:09:31;;;;;;;3.40;1.88;;;;;;;;;;5073610;28;20032;-86
2021/08/28 13:11:57;;;;;;;1.90;1.58;;;;;;;;;;5083308;28;20104;-82
2021/08/28 13:14:23;;;;;;;2.75;1.75;;;;;;;;;;5081201;28;20028;-85
2021/08/28 13:16:52;;;;;;;3.28;1.60;;;;;;;;;;5091563;28;20034;-84
2021/08/28 13:19:19;;;;;;;4.10;1.48;;;;;;;;;;5082251;28;20031;-84
2021/08/28 13:21:46;;;;;;;1.88;1.42;;;;;;;;;;5074208;28;20032;-84
2021/08/28 13:24:14;;;;;;;2.28;1.80;;;;;;;;;;5067921;28;20376;-84
2021/08/28 13:26:58;;;;;;;2.22;1.58;;;;;;;;;;5077027;28;20047;-83
2021/08/28 13:29:28;;;;;;;2.22;1.30;;;;;;;;;;5073319;28;20021;-84
2021/08/28 13:32:06;;;;;;;2.67;1.70;;;;;;;;;;5074103;28;20489;-84
2021/08/28 13:34:38;;;;;;;2.17;1.30;;;;;;;;;;5076344;28;20389;-84
2021/08/28 13:37:05;;;;;;;1.88;1.48;;;;;;;;;;5078821;28;20032;-84
2021/08/28 13:39:31;;;;;;;3.15;1.45;;;;;;;;;;5079353;28;20027;-85
2021/08/28 13:41:57;;;;;;;1.65;1.30;;;;;;;;;;5078468;28;20028;-85
2021/08/28 13:44:23;;;;;;;3.42;1.80;;;;;;;;;;5077401;28;20027;-85
2021/08/28 13:46:49;;;;;;;1.98;1.50;;;;;;;;;;5086068;28;20041;-85
2021/08/28 13:49:15;;;;;;;3.13;1.60;;;;;;;;;;5083670;28;20054;-85
2021/08/28 13:51:41;;;;;;;3.58;1.60;;;;;;;;;;5085556;28;20040;-85
2021/08/28 13:54:07;;;;;;;2.60;1.52;;;;;;;;;;5080015;28;20037;-85
2021/08/28 13:56:33;;;;;;;1.90;1.60;;;;;;;;;;5075316;28;20121;-85
2021/08/28 13:58:59;;;;;;;2.80;1.80;;;;;;;;;;5076421;28;20037;-85
2021/08/28 14:01:25;;;;;;;2.30;1.75;;;;;;;;;;5075655;28;20033;-85
2021/08/28 14:03:51;;;;;;;2.47;1.70;;;;;;;;;;5071043;28;20086;-85
2021/08/28 14:06:18;;;;;;;2.70;2.10;;;;;;;;;;5080795;28;20028;-84
2021/08/28 14:08:44;;;;;;;2.72;1.63;;;;;;;;;;5075506;28;20017;-85
2021/08/28 14:11:10;;;;;;;2.38;1.40;;;;;;;;;;5073230;28;20037;-85
2021/08/28 14:13:39;;;;;;;3.75;2.10;;;;;;;;;;5078136;28;20404;-83
2021/08/28 14:16:05;;;;;;;2.90;1.65;;;;;;;;;;5081452;28;20059;-85
2021/08/28 14:18:31;;;;;;;2.85;1.80;;;;;;;;;;5088788;28;20041;-84
2021/08/28 14:20:57;;;;;;;3.10;1.75;;;;;;;;;;5086441;28;20038;-85
2021/08/28 14:23:23;;;;;;;2.40;1.70;;;;;;;;;;5088110;28;20036;-86
2021/08/28 14:25:49;;;;;;;3.30;1.70;;;;;;;;;;5075895;28;20033;-85
2021/08/28 14:28:16;;;;;;;11.20;3.17;;;;;;;;;;5081663;28;20024;-86
2021/08/28 14:30:42;;;;;;;2.30;1.55;;;;;;;;;;5082642;28;20047;-85
2021/08/28 14:33:08;;;;;;;4.38;1.73;;;;;;;;;;5078955;28;20035;-85
2021/08/28 14:35:34;;;;;;;2.28;1.33;;;;;;;;;;5087109;28;20028;-86
2021/08/28 14:38:00;;;;;;;1.70;1.50;;;;;;;;;;5086602;28;20028;-86
2021/08/28 14:40:26;;;;;;;2.83;1.70;;;;;;;;;;5073749;28;20124;-82
2021/08/28 14:42:52;;;;;;;1.75;1.30;;;;;;;;;;5077917;28;20055;-81